Time;durP1;ratioP1;P1;durP2;ratioP2;P2;SDS_P1;SDS_P2;PMS_P1;PMS_P2;Temp;Humidity;BMP_temperature;BMP_pressure;BME280_temperature;BME280_humidity;BME280_pressure;Samples;Min_cycle;Max_cycle;Signal;HPM_P1;HPM_P2
2021/03/24 00:01:36;;;;;;;72.95;32.70;;;5.90;99.90;;;;;;5009790;28;20054;-83
2021/03/24 00:04:02;;;;;;;79.00;33.63;;;5.90;99.90;;;;;;4985141;28;20505;-83
2021/03/24 00:06:29;;;;;;;77.75;33.97;;;5.90;99.90;;;;;;5008813;28;20390;-83
2021/03/24 00:08:55;;;;;;;77.20;34.65;;;5.80;99.90;;;;;;5006429;28;20136;-83
2021/03/24 00:11:21;;;;;;;72.18;33.50;;;5.70;99.90;;;;;;4994077;28;20060;-83
2021/03/24 00:13:49;;;;;;;80.88;35.03;;;5.70;99.90;;;;;;5007675;28;20081;-82
2021/03/24 00:16:15;;;;;;;77.70;33.50;;;5.60;99.90;;;;;;4999802;28;20077;-82
2021/03/24 00:18:42;;;;;;;74.45;33.72;;;5.60;99.90;;;;;;5009176;28;20053;-83
2021/03/24 00:21:09;;;;;;;72.75;33.40;;;5.50;99.90;;;;;;5010743;28;20045;-83
2021/03/24 00:23:35;;;;;;;73.00;33.78;;;5.50;99.90;;;;;;5007918;28;20049;-83
2021/03/24 00:26:01;;;;;;;81.47;34.75;;;5.40;99.90;;;;;;4996949;28;20049;-83
2021/03/24 00:28:28;;;;;;;82.80;35.78;;;5.40;99.90;;;;;;5000602;28;20077;-82
2021/03/24 00:30:55;;;;;;;72.07;32.35;;;5.40;99.90;;;;;;4999692;28;20616;-82
2021/03/24 00:33:25;;;;;;;79.28;32.47;;;5.30;99.90;;;;;;4996759;28;20050;-83
2021/03/24 00:35:53;;;;;;;82.15;35.20;;;5.30;99.90;;;;;;4987060;28;20118;-83
2021/03/24 00:38:21;;;;;;;78.70;34.85;;;5.30;99.90;;;;;;4987930;28;20058;-82
2021/03/24 00:40:49;;;;;;;81.45;36.45;;;5.20;99.90;;;;;;5009460;28;20046;-83
2021/03/24 00:43:16;;;;;;;75.75;32.90;;;5.20;99.90;;;;;;4990408;28;20140;-83
2021/03/24 00:45:43;;;;;;;91.10;36.20;;;5.10;99.90;;;;;;5008549;28;20054;-83
2021/03/24 00:48:26;;;;;;;75.68;32.60;;;5.10;99.90;;;;;;4993724;28;20078;-83
2021/03/24 00:50:53;;;;;;;79.88;35.05;;;5.10;99.90;;;;;;5007408;28;20497;-83
2021/03/24 00:53:20;;;;;;;78.28;34.63;;;5.10;99.90;;;;;;4990542;28;20664;-83
2021/03/24 00:55:47;;;;;;;89.13;34.88;;;5.10;99.90;;;;;;4988649;28;20050;-83
2021/03/24 00:58:13;;;;;;;80.88;35.03;;;5.10;99.90;;;;;;5005500;28;20057;-83
2021/03/24 01:00:40;;;;;;;88.57;38.05;;;5.10;99.90;;;;;;5007374;28;20049;-83
2021/03/24 01:03:07;;;;;;;88.50;36.83;;;5.10;99.90;;;;;;5008612;28;20076;-83
2021/03/24 01:05:35;;;;;;;87.13;36.97;;;5.10;99.90;;;;;;5007038;28;20053;-83
2021/03/24 01:08:04;;;;;;;87.03;37.33;;;5.10;99.90;;;;;;5007717;28;20064;-83
2021/03/24 01:10:33;;;;;;;94.28;38.83;;;5.10;99.90;;;;;;5003983;28;20560;-82
2021/03/24 01:13:00;;;;;;;94.00;38.97;;;5.10;99.90;;;;;;4995134;28;20042;-82
2021/03/24 01:15:27;;;;;;;81.15;38.08;;;5.10;99.90;;;;;;4994672;28;20049;-83
2021/03/24 01:17:54;;;;;;;88.93;37.42;;;5.10;99.90;;;;;;4994564;28;20046;-82
2021/03/24 01:20:25;;;;;;;85.80;38.10;;;5.10;99.90;;;;;;4994420;28;20058;-83
2021/03/24 01:22:56;;;;;;;91.57;38.40;;;5.10;99.90;;;;;;5006529;28;20112;-82
2021/03/24 01:25:24;;;;;;;95.13;38.03;;;5.10;99.90;;;;;;5003971;28;20084;-82
2021/03/24 01:27:52;;;;;;;83.85;37.67;;;5.00;99.90;;;;;;5006578;28;20042;-83
2021/03/24 01:30:20;;;;;;;95.60;39.40;;;5.10;99.90;;;;;;4987167;28;20121;-82
2021/03/24 01:32:47;;;;;;;92.80;40.20;;;5.00;99.90;;;;;;5007617;28;20057;-83
2021/03/24 01:35:16;;;;;;;87.38;38.40;;;5.00;99.90;;;;;;4984419;28;20081;-82
2021/03/24 01:37:43;;;;;;;88.68;38.80;;;5.00;99.90;;;;;;4995627;28;20057;-82
2021/03/24 01:40:16;;;;;;;99.55;43.63;;;5.00;99.90;;;;;;4996436;28;20138;-82
2021/03/24 01:42:43;;;;;;;96.38;39.75;;;5.00;99.90;;;;;;4988195;28;20049;-83
2021/03/24 01:45:15;;;;;;;98.90;39.88;;;4.90;99.90;;;;;;4988491;28;20057;-83
2021/03/24 01:47:43;;;;;;;101.60;42.00;;;4.90;99.90;;;;;;5003370;28;20568;-82
2021/03/24 01:50:37;;;;;;;103.68;41.30;;;4.90;99.90;;;;;;5005256;28;20049;-83
2021/03/24 01:53:16;;;;;;;96.65;40.00;;;4.90;99.90;;;;;;4991602;28;20049;-82
2021/03/24 01:55:42;;;;;;;101.43;40.75;;;4.90;99.90;;;;;;5006563;28;20474;-82
2021/03/24 01:58:09;;;;;;;100.75;42.20;;;4.90;99.90;;;;;;5008877;28;20137;-83
2021/03/24 02:00:46;;;;;;;102.45;43.20;;;4.90;99.90;;;;;;4998456;28;20064;-82
2021/03/24 02:03:13;;;;;;;102.90;42.45;;;4.90;99.90;;;;;;5003985;28;20294;-82
2021/03/24 02:05:42;;;;;;;100.70;41.38;;;4.90;99.90;;;;;;4982585;28;20045;-82
2021/03/24 02:08:17;;;;;;;104.03;42.97;;;4.90;99.90;;;;;;4994901;28;20060;-83
2021/03/24 02:10:48;;;;;;;107.13;43.03;;;5.00;99.90;;;;;;5005408;28;20105;-83
2021/03/24 02:13:23;;;;;;;101.30;42.47;;;5.10;99.90;;;;;;5006681;28;20186;-82
2021/03/24 02:15:55;;;;;;;99.85;42.10;;;5.10;99.90;;;;;;5003537;28;20053;-83
2021/03/24 02:18:24;;;;;;;102.78;43.42;;;5.10;99.90;;;;;;5006008;28;20145;-83
2021/03/24 02:20:55;;;;;;;100.85;42.97;;;5.10;99.90;;;;;;5005084;28;20053;-83
2021/03/24 02:23:40;;;;;;;102.70;40.70;;;5.20;99.90;;;;;;4990874;28;20073;-83
2021/03/24 02:26:43;;;;;;;108.93;42.88;;;5.20;99.90;;;;;;5010221;28;20072;-82
2021/03/24 02:29:12;;;;;;;108.97;42.83;;;5.20;99.90;;;;;;5016454;28;20097;-83
2021/03/24 02:31:40;;;;;;;100.72;42.88;;;5.30;99.90;;;;;;5016199;28;20153;-82
2021/03/24 02:34:12;;;;;;;102.80;42.88;;;5.30;99.90;;;;;;5017798;28;20052;-82
2021/03/24 02:36:39;;;;;;;99.55;43.40;;;5.40;99.90;;;;;;5018578;28;20056;-82
2021/03/24 02:39:09;;;;;;;108.60;45.67;;;5.40;99.90;;;;;;4995243;28;20480;-82
2021/03/24 02:41:38;;;;;;;106.72;44.80;;;5.40;99.90;;;;;;5002205;28;20054;-82
2021/03/24 02:44:05;;;;;;;101.70;43.45;;;5.40;99.90;;;;;;4997215;28;20058;-82
2021/03/24 02:46:32;;;;;;;99.93;43.38;;;5.40;99.90;;;;;;4999897;28;20128;-82
2021/03/24 02:49:02;;;;;;;113.38;45.28;;;5.50;99.90;;;;;;5013715;28;20056;-83
2021/03/24 02:51:29;;;;;;;115.28;46.42;;;5.40;99.90;;;;;;5001398;28;20088;-83
2021/03/24 02:54:05;;;;;;;116.68;45.70;;;5.40;99.90;;;;;;4987989;28;20048;-83
2021/03/24 02:56:32;;;;;;;111.47;45.88;;;5.40;99.90;;;;;;5001354;28;20072;-82
2021/03/24 02:58:58;;;;;;;120.30;48.97;;;5.30;99.90;;;;;;5001989;28;20102;-82
2021/03/24 03:01:29;;;;;;;113.88;48.78;;;5.30;99.90;;;;;;5008629;28;20053;-82
2021/03/24 03:04:14;;;;;;;118.85;48.60;;;5.30;99.90;;;;;;5018124;28;20037;-82
2021/03/24 03:06:42;;;;;;;121.70;48.17;;;5.20;99.90;;;;;;5018904;28;20073;-82
2021/03/24 03:09:20;;;;;;;114.68;46.92;;;5.20;99.90;;;;;;5017726;28;20062;-82
2021/03/24 03:11:57;;;;;;;119.95;47.83;;;5.10;99.90;;;;;;5017946;28;20073;-82
2021/03/24 03:14:35;;;;;;;120.68;49.22;;;5.10;99.90;;;;;;4996627;28;20062;-82
2021/03/24 03:17:14;;;;;;;132.05;50.30;;;5.00;99.90;;;;;;5012488;28;20056;-83
2021/03/24 03:20:06;;;;;;;128.65;50.28;;;4.90;99.90;;;;;;5007586;28;20157;-82
2021/03/24 03:22:36;;;;;;;130.35;48.70;;;4.90;99.90;;;;;;5008425;28;20038;-83
2021/03/24 03:25:09;;;;;;;125.38;48.17;;;4.80;99.90;;;;;;4996680;28;20057;-82
2021/03/24 03:27:35;;;;;;;129.90;49.60;;;4.80;99.90;;;;;;4995433;28;20050;-83
2021/03/24 03:30:09;;;;;;;136.52;50.13;;;4.70;99.90;;;;;;4989424;28;20165;-82
2021/03/24 03:32:37;;;;;;;136.38;51.47;;;4.70;99.90;;;;;;5003226;28;20515;-83
2021/03/24 03:35:09;;;;;;;138.90;52.63;;;4.60;99.90;;;;;;5003865;28;20053;-82
2021/03/24 03:37:36;;;;;;;144.05;50.17;;;4.60;99.90;;;;;;4995685;28;20116;-82
2021/03/24 03:40:04;;;;;;;144.88;52.42;;;4.50;99.90;;;;;;5004724;28;20114;-83
2021/03/24 03:42:31;;;;;;;141.70;53.45;;;4.50;99.90;;;;;;4997091;28;20117;-83
2021/03/24 03:44:57;;;;;;;141.40;51.55;;;4.50;99.90;;;;;;4990268;28;20550;-83
2021/03/24 03:47:24;;;;;;;144.40;53.08;;;4.40;99.90;;;;;;5008311;28;20623;-83
2021/03/24 03:49:51;;;;;;;155.73;53.67;;;4.40;99.90;;;;;;4998412;28;20058;-83
2021/03/24 03:52:46;;;;;;;156.85;55.00;;;4.40;99.90;;;;;;4988689;28;20050;-83
2021/03/24 03:55:27;;;;;;;140.73;50.03;;;4.30;99.90;;;;;;4986991;28;20058;-83
2021/03/24 03:57:56;;;;;;;164.63;54.47;;;4.30;99.90;;;;;;4996187;28;20103;-83
2021/03/24 04:00:24;;;;;;;155.52;52.72;;;4.20;99.90;;;;;;5006157;28;20104;-83
2021/03/24 04:03:02;;;;;;;152.70;55.30;;;4.20;99.90;;;;;;4985900;28;20046;-83
2021/03/24 04:05:40;;;;;;;154.73;52.40;;;4.20;99.90;;;;;;4990178;28;20045;-84
2021/03/24 04:08:11;;;;;;;151.10;53.30;;;4.10;99.90;;;;;;4998447;28;20108;-85
2021/03/24 04:10:44;;;;;;;157.52;52.38;;;4.10;99.90;;;;;;5006704;28;20081;-84
2021/03/24 04:13:11;;;;;;;171.23;55.72;;;4.00;99.90;;;;;;4996549;28;20042;-84
2021/03/24 04:15:37;;;;;;;166.75;53.13;;;4.00;99.90;;;;;;4998188;28;20056;-84
2021/03/24 04:18:12;;;;;;;189.57;58.38;;;4.00;99.90;;;;;;5007835;28;20061;-84
2021/03/24 04:20:41;;;;;;;180.68;56.22;;;4.00;99.90;;;;;;4999707;28;20141;-83
2021/03/24 04:23:14;;;;;;;170.75;55.95;;;3.90;99.90;;;;;;5006024;28;20046;-83
2021/03/24 04:25:54;;;;;;;175.47;56.17;;;3.90;99.90;;;;;;4990535;28;20145;-84
2021/03/24 04:28:24;;;;;;;196.02;60.30;;;3.90;99.90;;;;;;4989185;28;20307;-84
2021/03/24 04:30:56;;;;;;;183.90;55.85;;;3.90;99.90;;;;;;4996735;28;20132;-83
2021/03/24 04:33:23;;;;;;;183.85;55.35;;;3.90;99.90;;;;;;5006028;28;20128;-84
2021/03/24 04:35:51;;;;;;;200.85;59.67;;;3.90;99.90;;;;;;4998490;28;20473;-84
2021/03/24 04:38:43;;;;;;;177.73;54.35;;;3.80;99.90;;;;;;4991745;28;20125;-83
2021/03/24 04:41:16;;;;;;;192.77;59.88;;;3.80;99.90;;;;;;4999005;28;20045;-83
2021/03/24 04:43:46;;;;;;;194.80;60.60;;;3.80;99.90;;;;;;4998271;28;20136;-84
2021/03/24 04:46:21;;;;;;;185.60;56.30;;;3.80;99.90;;;;;;5006036;28;20483;-83
2021/03/24 04:49:09;;;;;;;188.48;57.97;;;3.80;99.90;;;;;;4988978;28;20065;-84
2021/03/24 04:51:38;;;;;;;189.43;58.92;;;3.80;99.90;;;;;;4980497;28;20108;-84
2021/03/24 04:54:10;;;;;;;195.48;60.75;;;3.70;99.90;;;;;;4995027;28;20058;-84
2021/03/24 04:56:39;;;;;;;183.10;58.95;;;3.70;99.90;;;;;;4990163;28;20054;-84
2021/03/24 04:59:09;;;;;;;188.25;57.35;;;3.70;99.90;;;;;;5006201;28;20056;-84
2021/03/24 05:01:41;;;;;;;185.05;61.25;;;3.70;99.90;;;;;;4990931;28;20100;-83
2021/03/24 05:04:26;;;;;;;199.45;61.63;;;3.60;99.90;;;;;;4991020;28;20049;-83
2021/03/24 05:07:07;;;;;;;191.63;57.70;;;3.60;99.90;;;;;;4990033;28;20065;-84
2021/03/24 05:09:34;;;;;;;196.07;57.83;;;3.60;99.90;;;;;;4995621;28;20413;-83
2021/03/24 05:12:18;;;;;;;192.88;58.35;;;3.50;99.90;;;;;;4998618;28;20409;-84
2021/03/24 05:15:11;;;;;;;188.10;57.38;;;3.50;99.90;;;;;;4989602;28;20128;-83
2021/03/24 05:17:41;;;;;;;175.15;55.78;;;3.40;99.90;;;;;;5000034;28;20053;-83
2021/03/24 05:20:43;;;;;;;187.93;56.50;;;3.40;99.90;;;;;;4996348;28;20071;-83
2021/03/24 05:23:17;;;;;;;198.52;61.80;;;3.40;99.90;;;;;;4930068;28;20379;-84
2021/03/24 05:26:01;;;;;;;199.60;58.70;;;3.40;99.90;;;;;;4995617;28;20149;-84
2021/03/24 05:28:30;;;;;;;185.30;55.67;;;3.30;99.90;;;;;;5004359;28;20096;-83
2021/03/24 05:31:13;;;;;;;199.57;58.30;;;3.30;99.90;;;;;;5006007;28;20068;-82
2021/03/24 05:33:44;;;;;;;191.73;58.70;;;3.30;99.90;;;;;;5007012;28;20080;-84
2021/03/24 05:36:18;;;;;;;185.77;58.25;;;3.20;99.90;;;;;;5005866;28;20062;-83
2021/03/24 05:38:50;;;;;;;170.57;55.03;;;3.20;99.90;;;;;;5005374;28;20374;-83
2021/03/24 05:41:37;;;;;;;185.57;57.35;;;3.20;99.90;;;;;;4994662;28;20152;-83
2021/03/24 05:44:25;;;;;;;188.70;56.20;;;3.10;99.90;;;;;;5006910;28;20046;-83
2021/03/24 05:47:24;;;;;;;195.70;58.15;;;3.10;99.90;;;;;;4987094;28;20054;-83
2021/03/24 05:50:34;;;;;;;181.88;54.80;;;3.10;99.90;;;;;;4988895;28;20053;-83
2021/03/24 05:53:00;;;;;;;162.38;53.50;;;3.10;99.90;;;;;;4988994;28;21513;-82
2021/03/24 05:56:08;;;;;;;189.02;57.03;;;3.10;99.90;;;;;;5006472;28;20062;-83
2021/03/24 05:58:55;;;;;;;183.43;56.80;;;3.10;99.90;;;;;;4951309;28;20077;-83
2021/03/24 06:01:31;;;;;;;183.27;54.65;;;3.10;99.90;;;;;;5005804;28;20057;-83
2021/03/24 06:04:10;;;;;;;177.13;56.60;;;3.00;99.90;;;;;;4985493;28;20054;-83
2021/03/24 06:07:13;;;;;;;172.15;56.50;;;3.10;99.90;;;;;;5006144;28;20077;-83
2021/03/24 06:10:03;;;;;;;184.23;55.92;;;3.10;99.90;;;;;;4984424;28;20053;-83
2021/03/24 06:12:51;;;;;;;199.52;59.58;;;3.10;99.90;;;;;;5008206;28;20100;-83
2021/03/24 06:15:48;;;;;;;203.55;61.78;;;3.10;99.90;;;;;;5006753;28;20421;-83
2021/03/24 06:18:59;;;;;;;185.02;56.95;;;3.20;99.90;;;;;;5004776;28;20106;-83
2021/03/24 06:21:34;;;;;;;189.82;58.03;;;3.20;99.90;;;;;;4992650;28;20034;-83
2021/03/24 06:24:17;;;;;;;196.40;59.38;;;3.30;99.90;;;;;;4996780;28;20049;-83
2021/03/24 06:26:54;;;;;;;188.60;59.25;;;3.40;99.90;;;;;;4986769;28;20050;-83
2021/03/24 06:29:48;;;;;;;179.25;57.13;;;3.40;99.90;;;;;;4987521;28;20096;-84
2021/03/24 06:32:46;;;;;;;174.88;57.40;;;3.50;99.90;;;;;;4995683;28;20493;-84
2021/03/24 06:35:41;;;;;;;191.18;59.17;;;3.60;99.90;;;;;;5004819;28;20049;-83
2021/03/24 06:38:33;;;;;;;186.52;60.78;;;3.70;99.90;;;;;;5002945;28;20046;-83
2021/03/24 06:41:36;;;;;;;186.90;59.22;;;3.80;99.90;;;;;;4992311;28;20072;-84
2021/03/24 06:44:37;;;;;;;172.65;60.03;;;4.00;99.90;;;;;;5009792;28;20497;-84
2021/03/24 06:47:17;;;;;;;167.55;57.40;;;4.10;99.90;;;;;;5006087;28;20121;-82
2021/03/24 06:50:11;;;;;;;168.02;59.38;;;4.30;99.90;;;;;;5006257;28;20046;-84
2021/03/24 06:52:56;;;;;;;150.05;55.45;;;4.50;99.90;;;;;;4980376;28;20056;-83
2021/03/24 06:55:40;;;;;;;148.90;56.22;;;4.70;99.90;;;;;;5006171;28;20482;-84
2021/03/24 06:58:37;;;;;;;125.63;52.00;;;4.90;99.90;;;;;;5005241;28;20084;-83
2021/03/24 07:01:18;;;;;;;136.50;50.92;;;5.20;99.90;;;;;;4994626;28;20560;-84
2021/03/24 07:04:09;;;;;;;118.72;49.20;;;5.50;99.90;;;;;;4991422;28;20568;-84
2021/03/24 07:06:53;;;;;;;115.15;47.72;;;5.60;99.90;;;;;;5009727;28;20445;-86
2021/03/24 07:10:07;;;;;;;112.53;48.33;;;5.70;99.90;;;;;;4997518;28;20073;-85
2021/03/24 07:13:07;;;;;;;110.55;47.97;;;5.80;99.90;;;;;;4930870;28;24498;-86
2021/03/24 07:16:08;;;;;;;112.60;47.03;;;6.00;99.90;;;;;;4958362;28;20191;-85
2021/03/24 07:19:00;;;;;;;102.68;45.78;;;6.10;99.90;;;;;;4982059;28;20073;-83
2021/03/24 07:21:55;;;;;;;106.47;47.35;;;6.20;99.90;;;;;;4996136;28;20535;-81
2021/03/24 07:24:53;;;;;;;100.05;44.60;;;6.40;99.90;;;;;;5008957;28;20064;-79
2021/03/24 07:27:45;;;;;;;96.03;44.60;;;6.50;99.90;;;;;;4999430;28;20492;-81
2021/03/24 07:30:35;;;;;;;95.63;43.40;;;6.60;99.90;;;;;;4988029;28;20050;-80
2021/03/24 07:33:24;;;;;;;92.50;41.28;;;6.80;99.90;;;;;;4993948;28;20980;-80
2021/03/24 07:36:14;;;;;;;87.50;40.33;;;7.00;99.90;;;;;;5010632;28;20505;-81
2021/03/24 07:39:01;;;;;;;88.75;41.28;;;7.10;99.90;;;;;;5005970;28;20153;-81
2021/03/24 07:42:04;;;;;;;79.10;39.10;;;7.20;99.90;;;;;;5008748;28;20050;-81
2021/03/24 07:45:21;;;;;;;85.72;40.63;;;7.30;99.90;;;;;;5011800;28;20030;-81
2021/03/24 07:48:24;;;;;;;78.88;39.17;;;7.50;99.90;;;;;;4913192;29;20052;-81
2021/03/24 07:51:02;;;;;;;78.40;37.90;;;7.60;99.90;;;;;;4932209;29;20123;-81
2021/03/24 07:53:44;;;;;;;75.95;37.17;;;7.80;99.90;;;;;;4990332;28;20585;-81
2021/03/24 07:56:39;;;;;;;80.50;36.53;;;8.00;99.90;;;;;;4993450;28;20052;-81
2021/03/24 07:59:18;;;;;;;77.30;37.50;;;8.10;99.90;;;;;;5009930;28;20497;-80
2021/03/24 08:02:16;;;;;;;72.40;36.65;;;8.30;99.90;;;;;;5008766;28;20125;-80
2021/03/24 08:05:05;;;;;;;79.25;38.40;;;8.40;99.90;;;;;;5008832;28;20108;-80
2021/03/24 08:07:49;;;;;;;72.35;34.47;;;8.60;99.90;;;;;;4998949;28;20121;-81
2021/03/24 08:10:43;;;;;;;71.78;36.05;;;8.70;99.90;;;;;;5008890;28;20102;-80
2021/03/24 08:13:49;;;;;;;69.00;35.15;;;8.80;99.90;;;;;;5006122;28;20108;-80
2021/03/24 08:16:27;;;;;;;75.97;37.28;;;8.90;99.90;;;;;;4990809;28;20042;-81
2021/03/24 08:19:18;;;;;;;68.80;35.05;;;9.00;99.90;;;;;;5009801;28;20050;-83
2021/03/24 08:22:14;;;;;;;66.95;32.63;;;9.10;99.90;;;;;;4994829;28;20099;-84
2021/03/24 08:25:06;;;;;;;67.50;34.67;;;9.10;99.90;;;;;;4978121;28;20045;-83
2021/03/24 08:28:09;;;;;;;71.25;33.40;;;9.30;99.90;;;;;;4972149;28;20061;-81
2021/03/24 08:31:08;;;;;;;63.03;34.20;;;9.40;99.90;;;;;;4997483;28;20543;-81
2021/03/24 08:33:52;;;;;;;68.72;32.63;;;9.50;99.90;;;;;;5009974;28;20056;-81
2021/03/24 08:36:37;;;;;;;63.80;32.35;;;9.60;99.90;;;;;;5009958;28;20053;-81
2021/03/24 08:39:24;;;;;;;63.92;32.40;;;9.60;99.90;;;;;;5010291;28;20132;-81
2021/03/24 08:42:27;;;;;;;62.40;30.77;;;9.70;99.90;;;;;;4984653;28;20042;-81
2021/03/24 08:45:15;;;;;;;60.35;28.90;;;9.90;99.90;;;;;;5008115;28;20045;-80
2021/03/24 08:47:42;;;;;;;64.18;32.65;;;10.00;99.90;;;;;;4992931;28;20482;-81
2021/03/24 08:50:15;;;;;;;59.78;29.33;;;10.10;99.90;;;;;;5005628;28;20137;-81
2021/03/24 08:53:08;;;;;;;64.35;30.08;;;10.20;99.90;;;;;;4997808;28;20505;-81
2021/03/24 08:55:54;;;;;;;62.15;29.23;;;10.20;99.90;;;;;;5010054;28;20026;-81
2021/03/24 08:58:47;;;;;;;60.13;29.33;;;10.30;99.90;;;;;;4974105;28;20482;-82
2021/03/24 09:01:32;;;;;;;61.75;28.80;;;10.40;99.90;;;;;;5007904;28;20073;-82
2021/03/24 09:04:23;;;;;;;59.60;28.40;;;10.40;99.90;;;;;;5006035;28;20053;-82
2021/03/24 09:06:53;;;;;;;52.55;28.23;;;10.50;99.90;;;;;;5008912;28;20046;-82
2021/03/24 09:09:35;;;;;;;61.22;29.65;;;10.60;99.90;;;;;;5010810;28;20073;-82
2021/03/24 09:12:20;;;;;;;58.08;29.85;;;10.70;99.90;;;;;;5008640;28;20480;-82
2021/03/24 09:15:24;;;;;;;56.28;28.90;;;10.90;99.90;;;;;;5005451;28;20053;-82
2021/03/24 09:18:09;;;;;;;50.73;27.40;;;11.10;99.90;;;;;;4994025;28;20049;-82
2021/03/24 09:21:00;;;;;;;59.95;29.77;;;11.20;99.90;;;;;;5011095;28;20060;-82
2021/03/24 09:23:41;;;;;;;56.80;28.65;;;11.20;99.90;;;;;;4997377;28;20049;-85
2021/03/24 09:26:33;;;;;;;55.67;28.70;;;11.20;99.90;;;;;;4989017;28;20058;-83
2021/03/24 09:29:31;;;;;;;58.40;27.75;;;11.30;99.90;;;;;;4986622;28;20045;-84
2021/03/24 09:32:31;;;;;;;57.00;28.67;;;11.50;99.90;;;;;;5007049;28;20069;-81
2021/03/24 09:35:20;;;;;;;51.70;27.15;;;11.60;99.90;;;;;;5009701;28;20386;-82
2021/03/24 09:37:59;;;;;;;59.03;30.88;;;11.70;99.90;;;;;;5007600;28;20068;-83
2021/03/24 09:40:33;;;;;;;52.92;28.25;;;11.90;99.90;;;;;;4996951;28;20080;-83
2021/03/24 09:43:04;;;;;;;55.53;28.98;;;12.10;99.90;;;;;;5001959;28;20150;-83
2021/03/24 09:45:35;;;;;;;49.72;26.88;;;12.10;99.90;;;;;;4986538;28;20061;-82
2021/03/24 09:48:16;;;;;;;55.78;30.33;;;12.10;99.90;;;;;;4996674;28;20132;-82
2021/03/24 09:51:04;;;;;;;49.65;28.33;;;12.30;99.90;;;;;;4986268;28;20126;-83
2021/03/24 09:53:39;;;;;;;51.30;26.98;;;12.40;99.90;;;;;;4997660;28;20061;-83
2021/03/24 09:56:16;;;;;;;51.28;24.60;;;12.50;99.90;;;;;;4990554;28;20149;-83
2021/03/24 09:59:16;;;;;;;46.42;24.38;;;12.70;99.90;;;;;;4990066;28;20046;-83
2021/03/24 10:01:54;;;;;;;51.10;27.55;;;12.80;99.90;;;;;;4989567;28;20142;-84
2021/03/24 10:04:41;;;;;;;46.20;24.83;;;12.80;99.90;;;;;;4993933;28;20046;-83
2021/03/24 10:07:15;;;;;;;44.92;23.08;;;12.80;99.90;;;;;;4998376;28;20057;-84
2021/03/24 10:10:20;;;;;;;45.80;23.38;;;12.80;99.90;;;;;;4988633;28;20117;-85
2021/03/24 10:13:02;;;;;;;48.65;22.65;;;12.80;99.90;;;;;;4898900;29;20079;-82
2021/03/24 10:15:42;;;;;;;43.38;23.42;;;12.90;99.90;;;;;;4921844;29;20075;-82
2021/03/24 10:18:30;;;;;;;48.17;25.02;;;13.00;99.90;;;;;;4964417;28;20046;-82
2021/03/24 10:21:25;;;;;;;46.80;25.80;;;13.10;99.90;;;;;;4995020;28;20490;-82
2021/03/24 10:24:14;;;;;;;42.50;24.80;;;13.20;99.90;;;;;;5002213;28;20398;-82
2021/03/24 10:26:54;;;;;;;42.33;24.23;;;13.40;99.90;;;;;;4987165;28;20073;-82
2021/03/24 10:29:48;;;;;;;49.80;25.52;;;13.60;99.90;;;;;;4995365;28;20061;-81
2021/03/24 10:32:23;;;;;;;52.25;26.35;;;13.70;99.90;;;;;;5002575;28;20132;-82
2021/03/24 10:34:59;;;;;;;43.97;22.65;;;13.80;99.90;;;;;;4993113;28;20079;-82
2021/03/24 10:37:57;;;;;;;48.58;22.33;;;13.90;99.90;;;;;;4996964;28;20112;-83
2021/03/24 10:40:28;;;;;;;41.85;23.60;;;13.90;99.90;;;;;;5008214;28;20056;-83
2021/03/24 10:43:19;;;;;;;45.83;23.33;;;14.10;99.90;;;;;;4989982;28;20141;-83
2021/03/24 10:46:19;;;;;;;43.60;23.55;;;14.20;99.90;;;;;;4988772;28;20104;-83
2021/03/24 10:49:05;;;;;;;38.00;21.77;;;14.30;98.80;;;;;;5010457;28;20045;-84
2021/03/24 10:51:40;;;;;;;44.85;23.60;;;14.30;99.90;;;;;;4982436;28;20072;-79
2021/03/24 10:54:24;;;;;;;41.88;23.33;;;14.30;97.20;;;;;;5008453;28;20056;-81
2021/03/24 10:56:51;;;;;;;45.03;22.92;;;14.30;98.40;;;;;;4992715;28;20049;-78
2021/03/24 10:59:43;;;;;;;46.85;24.15;;;14.40;97.20;;;;;;5007336;28;20049;-78
2021/03/24 11:02:52;;;;;;;45.17;23.80;;;14.50;96.30;;;;;;5007778;28;20073;-78
2021/03/24 11:05:28;;;;;;;42.50;23.55;;;14.60;98.90;;;;;;4894930;29;20190;-81
2021/03/24 11:08:26;;;;;;;37.20;20.67;;;14.80;98.40;;;;;;4880662;29;20245;-82
2021/03/24 11:11:14;;;;;;;39.88;21.05;;;15.00;94.90;;;;;;4982834;28;20496;-81
2021/03/24 11:13:49;;;;;;;40.63;20.60;;;15.20;95.60;;;;;;5011719;28;20041;-81
2021/03/24 11:16:27;;;;;;;39.35;18.77;;;15.40;92.40;;;;;;4998650;28;20045;-82
2021/03/24 11:19:06;;;;;;;37.95;20.15;;;15.30;87.30;;;;;;4990694;28;20050;-80
2021/03/24 11:21:47;;;;;;;35.95;20.63;;;15.20;90.40;;;;;;5009912;28;20096;-80
2021/03/24 11:24:20;;;;;;;36.45;20.52;;;15.20;91.20;;;;;;5004340;28;20140;-84
2021/03/24 11:26:55;;;;;;;;;;;15.40;91.50;;;;;;4996324;28;20064;-84
2021/03/24 11:29:24;;;;;;;40.10;20.08;;;15.50;91.20;;;;;;4996203;28;19960;-85
2021/03/24 11:31:50;;;;;;;37.40;20.38;;;15.60;89.10;;;;;;4999445;28;20079;-83
2021/03/24 11:34:41;;;;;;;38.05;20.48;;;15.80;91.00;;;;;;5014391;28;20500;-85
2021/03/24 11:37:40;;;;;;;38.53;21.33;;;16.00;90.80;;;;;;5011913;28;20555;-84
2021/03/24 11:40:30;;;;;;;39.92;22.88;;;16.10;83.70;;;;;;5001509;28;20049;-81
2021/03/24 11:43:03;;;;;;;46.85;22.77;;;16.00;87.90;;;;;;4983785;28;20071;-83
2021/03/24 11:45:32;;;;;;;45.50;23.63;;;16.10;85.10;;;;;;5010185;28;20050;-83
2021/03/24 11:48:26;;;;;;;42.95;23.02;;;16.30;87.10;;;;;;4996828;28;20209;-83
2021/03/24 11:51:04;;;;;;;43.88;23.20;;;16.50;87.60;;;;;;4988024;28;20069;-83
2021/03/24 11:54:05;;;;;;;40.58;23.98;;;16.70;82.80;;;;;;4997142;28;20100;-84
2021/03/24 11:56:46;;;;;;;40.08;23.55;;;16.80;80.80;;;;;;4998058;28;20134;-84
2021/03/24 11:59:32;;;;;;;50.00;24.85;;;16.60;78.50;;;;;;5003761;28;20118;-84
2021/03/24 12:02:35;;;;;;;42.17;23.85;;;16.30;82.90;;;;;;4967745;28;20113;-84
2021/03/24 12:05:20;;;;;;;49.65;25.75;;;16.40;83.60;;;;;;4932450;28;20423;-84
2021/03/24 12:08:12;;;;;;;49.15;24.63;;;16.60;83.10;;;;;;4974916;28;20133;-84
2021/03/24 12:10:42;;;;;;;42.30;24.23;;;16.90;86.50;;;;;;4974765;28;20142;-83
2021/03/24 12:13:08;;;;;;;44.92;25.73;;;17.50;79.50;;;;;;4990570;28;20067;-84
2021/03/24 12:15:36;;;;;;;45.17;24.02;;;17.90;81.10;;;;;;4993482;28;20331;-83
2021/03/24 12:18:07;;;;;;;47.25;25.77;;;18.40;77.90;;;;;;4975567;28;20054;-83
2021/03/24 12:20:56;;;;;;;50.25;25.90;;;18.60;73.30;;;;;;4977470;28;20126;-83
2021/03/24 12:23:30;;;;;;;44.17;25.33;;;18.60;70.00;;;;;;4977437;28;20426;-84
2021/03/24 12:25:59;;;;;;;51.25;26.52;;;18.70;67.90;;;;;;4974445;28;20103;-82
2021/03/24 12:28:32;;;;;;;48.80;26.15;;;18.50;67.90;;;;;;4985617;28;20046;-81
2021/03/24 12:31:17;;;;;;;39.97;25.20;;;18.50;68.10;;;;;;4984402;28;20099;-80
2021/03/24 12:33:48;;;;;;;42.65;23.52;;;18.50;71.30;;;;;;4989025;28;20055;-80
2021/03/24 12:36:19;;;;;;;38.90;22.50;;;18.80;70.00;;;;;;4994836;28;20517;-85
2021/03/24 12:39:04;;;;;;;41.78;23.83;;;19.10;67.30;;;;;;4994425;28;20470;-84
2021/03/24 12:41:40;;;;;;;43.30;24.38;;;19.50;68.10;;;;;;4958803;28;20059;-85
2021/03/24 12:44:41;;;;;;;41.45;23.80;;;20.20;61.50;;;;;;4985529;28;20062;-84
2021/03/24 12:47:27;;;;;;;45.60;25.15;;;20.50;60.20;;;;;;4963370;28;20406;-84
2021/03/24 12:50:23;;;;;;;41.63;23.83;;;20.60;59.30;;;;;;4969063;28;20069;-86
2021/03/24 12:53:01;;;;;;;44.15;24.27;;;20.60;60.00;;;;;;4970649;28;20055;-83
2021/03/24 12:55:27;;;;;;;43.95;25.60;;;20.90;57.80;;;;;;4986521;28;20047;-85
2021/03/24 12:58:20;;;;;;;42.67;23.38;;;21.40;57.30;;;;;;4972215;28;20070;-85
2021/03/24 13:01:11;;;;;;;38.05;23.08;;;21.80;55.60;;;;;;4980813;28;20115;-78
2021/03/24 13:04:05;;;;;;;42.13;24.60;;;22.30;52.60;;;;;;4975983;28;20058;-82
2021/03/24 13:06:50;;;;;;;;;;;22.90;51.30;;;;;;4983209;28;20062;-87
2021/03/24 13:09:41;;;;;;;43.97;23.20;;;23.10;51.10;;;;;;4985665;28;19960;-85
2021/03/24 13:12:26;;;;;;;43.50;23.38;;;23.20;49.90;;;;;;4967961;28;20082;-85
2021/03/24 13:15:05;;;;;;;36.35;22.23;;;23.60;49.60;;;;;;4972066;28;20050;-85
2021/03/24 13:18:01;;;;;;;38.38;20.15;;;23.20;46.10;;;;;;4967781;28;20042;-87
2021/03/24 13:21:01;;;;;;;38.78;21.83;;;22.60;48.10;;;;;;4965213;28;20091;-83
2021/03/24 13:23:49;;;;;;;39.78;23.65;;;22.20;49.10;;;;;;4945765;28;20054;-81
2021/03/24 13:26:35;;;;;;;39.25;23.58;;;22.00;50.30;;;;;;4983237;28;20114;-85
2021/03/24 13:29:26;;;;;;;35.90;22.88;;;22.10;51.30;;;;;;4967910;28;20042;-83
2021/03/24 13:32:22;;;;;;;43.10;23.48;;;22.00;50.30;;;;;;4961959;28;20498;-85
2021/03/24 13:35:01;;;;;;;42.70;24.08;;;21.60;52.20;;;;;;4983982;28;20105;-85
2021/03/24 13:37:28;;;;;;;37.20;23.27;;;21.40;52.10;;;;;;4967496;28;20042;-82